sensor_id;sensor_type;location;lat;lon;timestamp;temperature;humidity
47336;DHT22;33068;51.990;5.926;2022-07-23T00:00:40;15.30;99.90
47336;DHT22;33068;51.990;5.926;2022-07-23T00:03:07;15.30;99.90
47336;DHT22;33068;51.990;5.926;2022-07-23T00:05:34;15.30;99.90
47336;DHT22;33068;51.990;5.926;2022-07-23T00:08:03;15.20;99.90
47336;DHT22;33068;51.990;5.926;2022-07-23T00:10:31;15.20;99.90
47336;DHT22;33068;51.990;5.926;2022-07-23T00:13:01;15.20;99.90
47336;DHT22;33068;51.990;5.926;2022-07-23T00:15:28;15.20;99.90
47336;DHT22;33068;51.990;5.926;2022-07-23T00:17:55;15.20;99.90
47336;DHT22;33068;51.990;5.926;2022-07-23T00:20:23;15.20;99.90
47336;DHT22;33068;51.990;5.926;2022-07-23T00:22:51;15.20;99.90
47336;DHT22;33068;51.990;5.926;2022-07-23T00:25:21;15.20;99.90
47336;DHT22;33068;51.990;5.926;2022-07-23T00:27:49;15.10;99.90
47336;DHT22;33068;51.990;5.926;2022-07-23T00:30:16;15.10;99.90
47336;DHT22;33068;51.990;5.926;2022-07-23T00:32:48;15.10;99.90
47336;DHT22;33068;51.990;5.926;2022-07-23T00:35:18;15.10;99.90
47336;DHT22;33068;51.990;5.926;2022-07-23T00:37:46;15.00;99.90
47336;DHT22;33068;51.990;5.926;2022-07-23T00:40:13;15.00;99.90
47336;DHT22;33068;51.990;5.926;2022-07-23T00:42:41;14.90;99.90
47336;DHT22;33068;51.990;5.926;2022-07-23T00:45:08;14.90;99.90
47336;DHT22;33068;51.990;5.926;2022-07-23T00:47:38;14.90;99.90
47336;DHT22;33068;51.990;5.926;2022-07-23T00:50:08;14.90;99.90
47336;DHT22;33068;51.990;5.926;2022-07-23T00:52:36;14.80;99.90
47336;DHT22;33068;51.990;5.926;2022-07-23T00:55:05;15.10;99.90
47336;DHT22;33068;51.990;5.926;2022-07-23T00:57:33;14.90;99.90
47336;DHT22;33068;51.990;5.926;2022-07-23T01:00:02;14.80;99.90
47336;DHT22;33068;51.990;5.926;2022-07-23T01:02:30;14.80;99.90
47336;DHT22;33068;51.990;5.926;2022-07-23T01:04:57;14.80;99.90
47336;DHT22;33068;51.990;5.926;2022-07-23T01:07:25;14.70;99.90
47336;DHT22;33068;51.990;5.926;2022-07-23T01:09:52;14.70;99.90
47336;DHT22;33068;51.990;5.926;2022-07-23T01:12:20;14.70;99.90
47336;DHT22;33068;51.990;5.926;2022-07-23T01:14:54;14.70;99.90
47336;DHT22;33068;51.990;5.926;2022-07-23T01:17:22;14.70;99.90
47336;DHT22;33068;51.990;5.926;2022-07-23T01:19:50;14.60;99.90
47336;DHT22;33068;51.990;5.926;2022-07-23T01:22:18;14.40;99.90
47336;DHT22;33068;51.990;5.926;2022-07-23T01:24:47;14.60;99.90
47336;DHT22;33068;51.990;5.926;2022-07-23T01:27:18;14.60;99.90
47336;DHT22;33068;51.990;5.926;2022-07-23T01:29:47;14.50;99.90
47336;DHT22;33068;51.990;5.926;2022-07-23T01:32:18;14.50;99.90
47336;DHT22;33068;51.990;5.926;2022-07-23T01:34:45;14.50;99.90
47336;DHT22;33068;51.990;5.926;2022-07-23T01:37:12;14.50;99.90
47336;DHT22;33068;51.990;5.926;2022-07-23T01:39:40;14.50;99.90
47336;DHT22;33068;51.990;5.926;2022-07-23T01:42:08;14.40;99.90
47336;DHT22;33068;51.990;5.926;2022-07-23T01:44:36;14.40;99.90
47336;DHT22;33068;51.990;5.926;2022-07-23T01:47:05;14.40;99.90
47336;DHT22;33068;51.990;5.926;2022-07-23T01:49:32;14.40;99.90
47336;DHT22;33068;51.990;5.926;2022-07-23T01:52:26;14.30;99.90
47336;DHT22;33068;51.990;5.926;2022-07-23T01:54:53;14.30;99.90
47336;DHT22;33068;51.990;5.926;2022-07-23T01:57:22;14.30;99.90
47336;DHT22;33068;51.990;5.926;2022-07-23T01:59:49;14.30;99.90
47336;DHT22;33068;51.990;5.926;2022-07-23T02:02:19;14.30;99.90
47336;DHT22;33068;51.990;5.926;2022-07-23T02:04:46;14.20;99.90
47336;DHT22;33068;51.990;5.926;2022-07-23T02:07:15;14.20;99.90
47336;DHT22;33068;51.990;5.926;2022-07-23T02:09:43;14.10;99.90
47336;DHT22;33068;51.990;5.926;2022-07-23T02:12:12;14.10;99.90
47336;DHT22;33068;51.990;5.926;2022-07-23T02:14:40;14.00;99.90
47336;DHT22;33068;51.990;5.926;2022-07-23T02:17:11;14.00;99.90
47336;DHT22;33068;51.990;5.926;2022-07-23T02:19:38;13.90;99.90
47336;DHT22;33068;51.990;5.926;2022-07-23T02:22:05;13.90;99.90
47336;DHT22;33068;51.990;5.926;2022-07-23T02:24:33;13.90;99.90
47336;DHT22;33068;51.990;5.926;2022-07-23T02:27:00;13.90;99.90
47336;DHT22;33068;51.990;5.926;2022-07-23T02:29:28;13.90;99.90
47336;DHT22;33068;51.990;5.926;2022-07-23T02:31:56;13.80;99.90
47336;DHT22;33068;51.990;5.926;2022-07-23T02:34:23;13.70;99.90
47336;DHT22;33068;51.990;5.926;2022-07-23T02:36:51;13.70;99.90
47336;DHT22;33068;51.990;5.926;2022-07-23T02:39:18;13.70;99.90
47336;DHT22;33068;51.990;5.926;2022-07-23T02:41:45;13.70;99.90
47336;DHT22;33068;51.990;5.926;2022-07-23T02:44:12;13.70;99.90
47336;DHT22;33068;51.990;5.926;2022-07-23T02:46:42;13.60;99.90
47336;DHT22;33068;51.990;5.926;2022-07-23T02:49:10;13.60;99.90
47336;DHT22;33068;51.990;5.926;2022-07-23T02:51:37;13.60;99.90
47336;DHT22;33068;51.990;5.926;2022-07-23T02:54:06;13.60;99.90
47336;DHT22;33068;51.990;5.926;2022-07-23T02:56:35;13.60;99.90
47336;DHT22;33068;51.990;5.926;2022-07-23T02:59:02;13.50;99.90
47336;DHT22;33068;51.990;5.926;2022-07-23T03:01:31;13.50;99.90
47336;DHT22;33068;51.990;5.926;2022-07-23T03:03:59;13.50;99.90
47336;DHT22;33068;51.990;5.926;2022-07-23T03:06:27;13.50;99.90
47336;DHT22;33068;51.990;5.926;2022-07-23T03:08:55;13.50;99.90
47336;DHT22;33068;51.990;5.926;2022-07-23T03:11:22;13.50;99.90
47336;DHT22;33068;51.990;5.926;2022-07-23T03:13:49;13.50;99.90
47336;DHT22;33068;51.990;5.926;2022-07-23T03:16:16;13.40;99.90
47336;DHT22;33068;51.990;5.926;2022-07-23T03:18:44;13.40;99.90
47336;DHT22;33068;51.990;5.926;2022-07-23T03:21:11;13.40;99.90
47336;DHT22;33068;51.990;5.926;2022-07-23T03:23:40;13.20;99.90
47336;DHT22;33068;51.990;5.926;2022-07-23T03:26:07;13.40;99.90
47336;DHT22;33068;51.990;5.926;2022-07-23T03:28:35;13.30;99.90
47336;DHT22;33068;51.990;5.926;2022-07-23T03:31:05;13.40;99.90
47336;DHT22;33068;51.990;5.926;2022-07-23T03:33:32;13.40;99.90
47336;DHT22;33068;51.990;5.926;2022-07-23T03:35:59;13.40;99.90
47336;DHT22;33068;51.990;5.926;2022-07-23T03:38:30;13.40;99.90
47336;DHT22;33068;51.990;5.926;2022-07-23T03:40:58;13.40;99.90
47336;DHT22;33068;51.990;5.926;2022-07-23T03:43:25;13.40;99.90
47336;DHT22;33068;51.990;5.926;2022-07-23T03:45:53;13.40;99.90
47336;DHT22;33068;51.990;5.926;2022-07-23T03:48:20;13.50;99.90
47336;DHT22;33068;51.990;5.926;2022-07-23T03:50:48;13.40;99.90
47336;DHT22;33068;51.990;5.926;2022-07-23T03:53:15;13.40;99.90
47336;DHT22;33068;51.990;5.926;2022-07-23T03:55:42;13.40;99.90
47336;DHT22;33068;51.990;5.926;2022-07-23T03:58:10;13.40;99.90
47336;DHT22;33068;51.990;5.926;2022-07-23T04:00:37;13.40;99.90
47336;DHT22;33068;51.990;5.926;2022-07-23T04:03:05;13.40;99.90
47336;DHT22;33068;51.990;5.926;2022-07-23T04:05:33;13.40;99.90
47336;DHT22;33068;51.990;5.926;2022-07-23T04:08:05;13.40;99.90
47336;DHT22;33068;51.990;5.926;2022-07-23T04:10:35;13.40;99.90
47336;DHT22;33068;51.990;5.926;2022-07-23T04:13:04;13.60;99.90
47336;DHT22;33068;51.990;5.926;2022-07-23T04:15:33;13.50;99.90
47336;DHT22;33068;51.990;5.926;2022-07-23T04:18:00;13.40;99.90
47336;DHT22;33068;51.990;5.926;2022-07-23T04:20:41;13.50;99.90
47336;DHT22;33068;51.990;5.926;2022-07-23T04:23:09;13.50;99.90
47336;DHT22;33068;51.990;5.926;2022-07-23T04:25:38;13.60;99.90
47336;DHT22;33068;51.990;5.926;2022-07-23T04:28:05;13.50;99.90
47336;DHT22;33068;51.990;5.926;2022-07-23T04:30:34;13.50;99.90
47336;DHT22;33068;51.990;5.926;2022-07-23T04:33:02;13.60;99.90
47336;DHT22;33068;51.990;5.926;2022-07-23T04:35:33;13.60;99.90
47336;DHT22;33068;51.990;5.926;2022-07-23T04:38:11;13.70;99.90
47336;DHT22;33068;51.990;5.926;2022-07-23T04:40:38;13.70;99.90
47336;DHT22;33068;51.990;5.926;2022-07-23T04:43:06;13.70;99.90
47336;DHT22;33068;51.990;5.926;2022-07-23T04:45:40;13.70;99.90
47336;DHT22;33068;51.990;5.926;2022-07-23T04:48:19;13.70;99.90
47336;DHT22;33068;51.990;5.926;2022-07-23T04:50:49;13.80;99.90
47336;DHT22;33068;51.990;5.926;2022-07-23T04:53:22;13.90;99.90
47336;DHT22;33068;51.990;5.926;2022-07-23T04:55:51;13.90;99.90
47336;DHT22;33068;51.990;5.926;2022-07-23T04:58:19;13.90;99.90
47336;DHT22;33068;51.990;5.926;2022-07-23T05:00:48;13.90;99.90
47336;DHT22;33068;51.990;5.926;2022-07-23T05:03:16;14.00;99.90
47336;DHT22;33068;51.990;5.926;2022-07-23T05:05:47;14.00;99.90
47336;DHT22;33068;51.990;5.926;2022-07-23T05:08:16;14.10;99.90
47336;DHT22;33068;51.990;5.926;2022-07-23T05:10:49;14.20;99.90
47336;DHT22;33068;51.990;5.926;2022-07-23T05:13:18;14.30;99.90
47336;DHT22;33068;51.990;5.926;2022-07-23T05:15:45;14.40;99.90
47336;DHT22;33068;51.990;5.926;2022-07-23T05:18:14;14.40;99.90
47336;DHT22;33068;51.990;5.926;2022-07-23T05:20:42;14.50;99.90
47336;DHT22;33068;51.990;5.926;2022-07-23T05:23:13;14.60;99.90
47336;DHT22;33068;51.990;5.926;2022-07-23T05:25:40;14.80;99.90
47336;DHT22;33068;51.990;5.926;2022-07-23T05:28:08;14.90;99.90
47336;DHT22;33068;51.990;5.926;2022-07-23T05:30:35;15.00;99.90
47336;DHT22;33068;51.990;5.926;2022-07-23T05:33:06;15.10;99.90
47336;DHT22;33068;51.990;5.926;2022-07-23T05:35:36;15.20;99.90
47336;DHT22;33068;51.990;5.926;2022-07-23T05:38:25;15.30;99.90
47336;DHT22;33068;51.990;5.926;2022-07-23T05:40:54;15.50;99.90
47336;DHT22;33068;51.990;5.926;2022-07-23T05:43:21;15.60;99.90
47336;DHT22;33068;51.990;5.926;2022-07-23T05:45:49;15.70;99.90
47336;DHT22;33068;51.990;5.926;2022-07-23T05:48:16;15.80;99.90
47336;DHT22;33068;51.990;5.926;2022-07-23T05:50:58;16.00;99.90
47336;DHT22;33068;51.990;5.926;2022-07-23T05:53:31;16.20;99.90
47336;DHT22;33068;51.990;5.926;2022-07-23T05:56:01;16.30;99.90
47336;DHT22;33068;51.990;5.926;2022-07-23T05:58:30;16.40;99.90
47336;DHT22;33068;51.990;5.926;2022-07-23T06:00:57;16.50;99.90
47336;DHT22;33068;51.990;5.926;2022-07-23T06:03:24;16.60;99.90
47336;DHT22;33068;51.990;5.926;2022-07-23T06:05:52;16.60;99.90
47336;DHT22;33068;51.990;5.926;2022-07-23T06:08:21;16.70;99.90
47336;DHT22;33068;51.990;5.926;2022-07-23T06:10:49;16.80;99.90
47336;DHT22;33068;51.990;5.926;2022-07-23T06:13:18;16.90;99.90
47336;DHT22;33068;51.990;5.926;2022-07-23T06:15:45;17.30;99.90
47336;DHT22;33068;51.990;5.926;2022-07-23T06:18:13;17.00;99.90
47336;DHT22;33068;51.990;5.926;2022-07-23T06:20:41;17.00;99.90
47336;DHT22;33068;51.990;5.926;2022-07-23T06:23:10;17.20;99.90
47336;DHT22;33068;51.990;5.926;2022-07-23T06:25:39;17.30;99.90
47336;DHT22;33068;51.990;5.926;2022-07-23T06:28:09;17.50;99.90
47336;DHT22;33068;51.990;5.926;2022-07-23T06:30:37;17.50;99.90
47336;DHT22;33068;51.990;5.926;2022-07-23T06:33:04;17.50;99.90
47336;DHT22;33068;51.990;5.926;2022-07-23T06:35:31;17.50;99.90
47336;DHT22;33068;51.990;5.926;2022-07-23T06:37:59;17.50;99.90
47336;DHT22;33068;51.990;5.926;2022-07-23T06:40:26;17.50;99.90
47336;DHT22;33068;51.990;5.926;2022-07-23T06:42:55;17.50;99.90
47336;DHT22;33068;51.990;5.926;2022-07-23T06:45:24;17.60;99.90
47336;DHT22;33068;51.990;5.926;2022-07-23T06:47:55;17.80;99.90
47336;DHT22;33068;51.990;5.926;2022-07-23T06:50:22;18.00;99.90
47336;DHT22;33068;51.990;5.926;2022-07-23T06:52:49;18.20;99.90
47336;DHT22;33068;51.990;5.926;2022-07-23T06:55:17;18.40;99.90
47336;DHT22;33068;51.990;5.926;2022-07-23T06:57:47;18.50;99.90
47336;DHT22;33068;51.990;5.926;2022-07-23T07:00:24;18.70;99.90
47336;DHT22;33068;51.990;5.926;2022-07-23T07:02:55;18.70;99.90
47336;DHT22;33068;51.990;5.926;2022-07-23T07:05:26;18.90;99.90
47336;DHT22;33068;51.990;5.926;2022-07-23T07:07:54;19.00;99.90
47336;DHT22;33068;51.990;5.926;2022-07-23T07:10:22;19.00;99.90
47336;DHT22;33068;51.990;5.926;2022-07-23T07:12:49;18.70;99.90
47336;DHT22;33068;51.990;5.926;2022-07-23T07:15:17;18.90;99.90
47336;DHT22;33068;51.990;5.926;2022-07-23T07:17:47;19.10;99.90
47336;DHT22;33068;51.990;5.926;2022-07-23T07:20:15;19.20;99.90
47336;DHT22;33068;51.990;5.926;2022-07-23T07:22:44;19.30;99.90
47336;DHT22;33068;51.990;5.926;2022-07-23T07:25:11;19.20;99.90
47336;DHT22;33068;51.990;5.926;2022-07-23T07:27:39;19.20;99.90
47336;DHT22;33068;51.990;5.926;2022-07-23T07:30:10;19.40;99.90
47336;DHT22;33068;51.990;5.926;2022-07-23T07:32:40;19.60;99.90
47336;DHT22;33068;51.990;5.926;2022-07-23T07:35:10;19.70;99.90
47336;DHT22;33068;51.990;5.926;2022-07-23T07:37:38;19.80;99.90
47336;DHT22;33068;51.990;5.926;2022-07-23T07:40:13;20.00;99.90
47336;DHT22;33068;51.990;5.926;2022-07-23T07:42:47;20.20;99.90
47336;DHT22;33068;51.990;5.926;2022-07-23T07:45:19;20.10;99.90
47336;DHT22;33068;51.990;5.926;2022-07-23T07:47:47;20.10;99.90
47336;DHT22;33068;51.990;5.926;2022-07-23T07:50:20;20.30;99.30
47336;DHT22;33068;51.990;5.926;2022-07-23T07:52:48;20.20;98.80
47336;DHT22;33068;51.990;5.926;2022-07-23T07:55:15;20.20;99.90
47336;DHT22;33068;51.990;5.926;2022-07-23T07:57:43;20.50;99.00
47336;DHT22;33068;51.990;5.926;2022-07-23T08:00:11;20.50;98.70
47336;DHT22;33068;51.990;5.926;2022-07-23T08:02:41;20.50;99.70
47336;DHT22;33068;51.990;5.926;2022-07-23T08:05:12;20.60;99.90
47336;DHT22;33068;51.990;5.926;2022-07-23T08:07:42;20.80;99.90
47336;DHT22;33068;51.990;5.926;2022-07-23T08:10:10;21.10;99.70
47336;DHT22;33068;51.990;5.926;2022-07-23T08:12:39;21.50;98.80
47336;DHT22;33068;51.990;5.926;2022-07-23T08:15:07;22.00;97.80
47336;DHT22;33068;51.990;5.926;2022-07-23T08:17:35;22.70;95.60
47336;DHT22;33068;51.990;5.926;2022-07-23T08:20:06;23.40;93.80
47336;DHT22;33068;51.990;5.926;2022-07-23T08:22:49;23.90;94.00
47336;DHT22;33068;51.990;5.926;2022-07-23T08:25:20;24.80;91.80
47336;DHT22;33068;51.990;5.926;2022-07-23T08:27:48;25.20;87.80
47336;DHT22;33068;51.990;5.926;2022-07-23T08:30:16;25.20;87.40
47336;DHT22;33068;51.990;5.926;2022-07-23T08:32:49;25.30;87.60
47336;DHT22;33068;51.990;5.926;2022-07-23T08:35:17;25.60;87.10
47336;DHT22;33068;51.990;5.926;2022-07-23T08:37:44;25.10;85.40
47336;DHT22;33068;51.990;5.926;2022-07-23T08:40:13;24.30;90.10
47336;DHT22;33068;51.990;5.926;2022-07-23T08:42:42;24.40;88.40
47336;DHT22;33068;51.990;5.926;2022-07-23T08:45:09;24.80;87.00
47336;DHT22;33068;51.990;5.926;2022-07-23T08:47:38;24.80;87.30
47336;DHT22;33068;51.990;5.926;2022-07-23T08:50:07;25.00;87.30
47336;DHT22;33068;51.990;5.926;2022-07-23T08:52:36;25.10;88.00
47336;DHT22;33068;51.990;5.926;2022-07-23T08:55:05;25.20;84.40
47336;DHT22;33068;51.990;5.926;2022-07-23T08:57:34;24.70;85.30
47336;DHT22;33068;51.990;5.926;2022-07-23T09:00:04;24.30;85.90
47336;DHT22;33068;51.990;5.926;2022-07-23T09:02:34;24.30;88.60
47336;DHT22;33068;51.990;5.926;2022-07-23T09:05:05;24.50;87.00
47336;DHT22;33068;51.990;5.926;2022-07-23T09:07:33;24.60;87.10
47336;DHT22;33068;51.990;5.926;2022-07-23T09:10:06;24.80;86.30
47336;DHT22;33068;51.990;5.926;2022-07-23T09:12:36;24.80;86.30
47336;DHT22;33068;51.990;5.926;2022-07-23T09:15:08;25.00;86.30
47336;DHT22;33068;51.990;5.926;2022-07-23T09:17:40;25.30;84.70
47336;DHT22;33068;51.990;5.926;2022-07-23T09:20:10;25.20;83.80
47336;DHT22;33068;51.990;5.926;2022-07-23T09:22:42;25.20;85.00
47336;DHT22;33068;51.990;5.926;2022-07-23T09:25:14;25.40;83.20
47336;DHT22;33068;51.990;5.926;2022-07-23T09:27:56;25.40;85.70
47336;DHT22;33068;51.990;5.926;2022-07-23T09:30:25;25.50;84.60
47336;DHT22;33068;51.990;5.926;2022-07-23T09:33:08;25.60;85.40
47336;DHT22;33068;51.990;5.926;2022-07-23T09:35:48;25.70;82.40
47336;DHT22;33068;51.990;5.926;2022-07-23T09:38:17;25.40;83.80
47336;DHT22;33068;51.990;5.926;2022-07-23T09:40:45;25.70;86.00
47336;DHT22;33068;51.990;5.926;2022-07-23T09:43:26;26.00;82.70
47336;DHT22;33068;51.990;5.926;2022-07-23T09:46:17;25.80;82.20
47336;DHT22;33068;51.990;5.926;2022-07-23T09:48:45;26.00;83.70
47336;DHT22;33068;51.990;5.926;2022-07-23T09:51:12;26.10;81.20
47336;DHT22;33068;51.990;5.926;2022-07-23T09:53:43;26.20;81.00
47336;DHT22;33068;51.990;5.926;2022-07-23T09:56:12;25.90;81.60
47336;DHT22;33068;51.990;5.926;2022-07-23T09:58:41;25.90;82.20
47336;DHT22;33068;51.990;5.926;2022-07-23T10:01:15;26.00;81.30
47336;DHT22;33068;51.990;5.926;2022-07-23T10:03:43;25.60;82.40
47336;DHT22;33068;51.990;5.926;2022-07-23T10:06:31;25.50;83.60
47336;DHT22;33068;51.990;5.926;2022-07-23T10:09:23;25.70;82.30
47336;DHT22;33068;51.990;5.926;2022-07-23T10:12:16;25.60;81.90
47336;DHT22;33068;51.990;5.926;2022-07-23T10:14:59;25.70;84.70
47336;DHT22;33068;51.990;5.926;2022-07-23T10:17:27;26.40;79.80
47336;DHT22;33068;51.990;5.926;2022-07-23T10:19:54;26.50;77.70
47336;DHT22;33068;51.990;5.926;2022-07-23T10:22:24;26.60;78.30
47336;DHT22;33068;51.990;5.926;2022-07-23T10:25:03;26.60;77.40
47336;DHT22;33068;51.990;5.926;2022-07-23T10:27:53;26.50;78.60
47336;DHT22;33068;51.990;5.926;2022-07-23T10:30:31;26.70;80.20
47336;DHT22;33068;51.990;5.926;2022-07-23T10:33:17;27.00;79.30
47336;DHT22;33068;51.990;5.926;2022-07-23T10:35:53;26.70;78.00
47336;DHT22;33068;51.990;5.926;2022-07-23T10:38:25;26.80;76.40
47336;DHT22;33068;51.990;5.926;2022-07-23T10:40:56;26.30;81.00
47336;DHT22;33068;51.990;5.926;2022-07-23T10:43:24;25.80;81.10
47336;DHT22;33068;51.990;5.926;2022-07-23T10:45:53;26.40;80.00
47336;DHT22;33068;51.990;5.926;2022-07-23T10:48:22;26.20;78.90
47336;DHT22;33068;51.990;5.926;2022-07-23T10:51:12;26.60;78.50
47336;DHT22;33068;51.990;5.926;2022-07-23T10:53:57;26.60;78.20
47336;DHT22;33068;51.990;5.926;2022-07-23T10:59:29;26.80;77.00
47336;DHT22;33068;51.990;5.926;2022-07-23T11:02:22;26.90;76.30
47336;DHT22;33068;51.990;5.926;2022-07-23T11:04:53;26.80;78.10
47336;DHT22;33068;51.990;5.926;2022-07-23T11:07:23;26.80;76.00
47336;DHT22;33068;51.990;5.926;2022-07-23T11:09:50;27.20;78.20
47336;DHT22;33068;51.990;5.926;2022-07-23T11:12:34;27.20;74.60
47336;DHT22;33068;51.990;5.926;2022-07-23T11:15:07;27.10;77.20
47336;DHT22;33068;51.990;5.926;2022-07-23T11:17:37;27.00;77.20
47336;DHT22;33068;51.990;5.926;2022-07-23T11:20:22;26.70;76.80
47336;DHT22;33068;51.990;5.926;2022-07-23T11:22:51;26.90;78.00
47336;DHT22;33068;51.990;5.926;2022-07-23T11:25:33;27.20;75.60
47336;DHT22;33068;51.990;5.926;2022-07-23T11:28:13;27.00;77.20
47336;DHT22;33068;51.990;5.926;2022-07-23T11:30:43;27.20;75.60
47336;DHT22;33068;51.990;5.926;2022-07-23T11:33:19;27.40;75.40
47336;DHT22;33068;51.990;5.926;2022-07-23T11:35:49;27.40;75.30
47336;DHT22;33068;51.990;5.926;2022-07-23T11:38:18;27.40;74.80
47336;DHT22;33068;51.990;5.926;2022-07-23T11:40:49;27.50;75.10
47336;DHT22;33068;51.990;5.926;2022-07-23T11:43:17;27.10;75.50
47336;DHT22;33068;51.990;5.926;2022-07-23T11:45:46;27.20;75.00
47336;DHT22;33068;51.990;5.926;2022-07-23T11:48:20;27.40;76.00
47336;DHT22;33068;51.990;5.926;2022-07-23T11:50:48;27.50;76.00
47336;DHT22;33068;51.990;5.926;2022-07-23T11:53:21;27.70;74.10
47336;DHT22;33068;51.990;5.926;2022-07-23T11:55:49;27.50;74.30
47336;DHT22;33068;51.990;5.926;2022-07-23T11:58:17;27.70;75.40
47336;DHT22;33068;51.990;5.926;2022-07-23T12:00:44;27.20;76.00
47336;DHT22;33068;51.990;5.926;2022-07-23T12:03:11;27.20;77.30
47336;DHT22;33068;51.990;5.926;2022-07-23T12:05:42;26.70;75.30
47336;DHT22;33068;51.990;5.926;2022-07-23T12:08:10;26.40;77.10
47336;DHT22;33068;51.990;5.926;2022-07-23T12:10:38;26.50;75.90
47336;DHT22;33068;51.990;5.926;2022-07-23T12:13:08;26.70;75.60
47336;DHT22;33068;51.990;5.926;2022-07-23T12:15:37;26.90;74.90
47336;DHT22;33068;51.990;5.926;2022-07-23T12:18:06;27.10;76.10
47336;DHT22;33068;51.990;5.926;2022-07-23T12:20:37;27.40;76.10
47336;DHT22;33068;51.990;5.926;2022-07-23T12:23:08;27.70;75.80
47336;DHT22;33068;51.990;5.926;2022-07-23T12:25:38;27.80;74.00
47336;DHT22;33068;51.990;5.926;2022-07-23T12:28:07;27.80;76.40
47336;DHT22;33068;51.990;5.926;2022-07-23T12:30:38;28.30;77.20
47336;DHT22;33068;51.990;5.926;2022-07-23T12:33:07;27.80;72.50
47336;DHT22;33068;51.990;5.926;2022-07-23T12:35:37;27.30;75.20
47336;DHT22;33068;51.990;5.926;2022-07-23T12:38:10;27.70;75.10
47336;DHT22;33068;51.990;5.926;2022-07-23T12:40:42;27.90;73.00
47336;DHT22;33068;51.990;5.926;2022-07-23T12:43:17;28.30;74.20
47336;DHT22;33068;51.990;5.926;2022-07-23T12:45:47;28.00;72.50
47336;DHT22;33068;51.990;5.926;2022-07-23T12:48:19;28.40;75.30
47336;DHT22;33068;51.990;5.926;2022-07-23T12:50:55;28.60;72.30
47336;DHT22;33068;51.990;5.926;2022-07-23T12:53:27;28.60;72.20
47336;DHT22;33068;51.990;5.926;2022-07-23T12:56:05;28.70;72.10
47336;DHT22;33068;51.990;5.926;2022-07-23T12:58:49;28.90;73.90
47336;DHT22;33068;51.990;5.926;2022-07-23T13:01:26;29.10;72.10
47336;DHT22;33068;51.990;5.926;2022-07-23T13:04:02;29.50;73.00
47336;DHT22;33068;51.990;5.926;2022-07-23T13:06:32;29.70;70.60
47336;DHT22;33068;51.990;5.926;2022-07-23T13:09:01;29.30;73.10
47336;DHT22;33068;51.990;5.926;2022-07-23T13:11:28;29.30;73.00
47336;DHT22;33068;51.990;5.926;2022-07-23T13:13:56;29.60;71.80
47336;DHT22;33068;51.990;5.926;2022-07-23T13:16:23;29.10;71.50
47336;DHT22;33068;51.990;5.926;2022-07-23T13:18:50;28.80;71.20
47336;DHT22;33068;51.990;5.926;2022-07-23T13:21:17;29.00;71.00
47336;DHT22;33068;51.990;5.926;2022-07-23T13:23:45;29.10;71.90
47336;DHT22;33068;51.990;5.926;2022-07-23T13:26:13;29.30;72.30
47336;DHT22;33068;51.990;5.926;2022-07-23T13:28:41;29.90;70.50
47336;DHT22;33068;51.990;5.926;2022-07-23T13:31:08;30.00;68.90
47336;DHT22;33068;51.990;5.926;2022-07-23T13:33:36;30.00;69.30
47336;DHT22;33068;51.990;5.926;2022-07-23T13:36:04;30.00;69.70
47336;DHT22;33068;51.990;5.926;2022-07-23T13:38:32;29.40;69.20
47336;DHT22;33068;51.990;5.926;2022-07-23T13:40:59;29.60;71.00
47336;DHT22;33068;51.990;5.926;2022-07-23T13:43:30;30.20;71.30
47336;DHT22;33068;51.990;5.926;2022-07-23T13:45:57;30.00;70.50
47336;DHT22;33068;51.990;5.926;2022-07-23T13:48:24;29.70;71.40
47336;DHT22;33068;51.990;5.926;2022-07-23T13:50:52;29.90;70.60
47336;DHT22;33068;51.990;5.926;2022-07-23T13:53:21;30.40;68.80
47336;DHT22;33068;51.990;5.926;2022-07-23T13:55:50;30.40;69.40
47336;DHT22;33068;51.990;5.926;2022-07-23T13:58:19;29.80;70.40
47336;DHT22;33068;51.990;5.926;2022-07-23T14:00:51;29.90;70.30
47336;DHT22;33068;51.990;5.926;2022-07-23T14:03:21;29.60;69.60
47336;DHT22;33068;51.990;5.926;2022-07-23T14:05:49;29.80;71.60
47336;DHT22;33068;51.990;5.926;2022-07-23T14:08:17;30.00;70.10
47336;DHT22;33068;51.990;5.926;2022-07-23T14:10:45;30.10;68.50
47336;DHT22;33068;51.990;5.926;2022-07-23T14:13:12;30.10;68.80
47336;DHT22;33068;51.990;5.926;2022-07-23T14:15:41;30.60;68.70
47336;DHT22;33068;51.990;5.926;2022-07-23T14:18:10;30.70;68.10
47336;DHT22;33068;51.990;5.926;2022-07-23T14:20:38;30.40;69.80
47336;DHT22;33068;51.990;5.926;2022-07-23T14:23:05;29.50;70.50
47336;DHT22;33068;51.990;5.926;2022-07-23T14:25:32;29.00;70.00
47336;DHT22;33068;51.990;5.926;2022-07-23T14:27:59;28.70;71.70
47336;DHT22;33068;51.990;5.926;2022-07-23T14:30:26;29.50;70.70
47336;DHT22;33068;51.990;5.926;2022-07-23T14:32:54;29.60;70.30
47336;DHT22;33068;51.990;5.926;2022-07-23T14:35:22;30.30;70.00
47336;DHT22;33068;51.990;5.926;2022-07-23T14:37:50;30.50;68.90
47336;DHT22;33068;51.990;5.926;2022-07-23T14:40:17;30.50;68.30
47336;DHT22;33068;51.990;5.926;2022-07-23T14:42:45;30.30;66.60
47336;DHT22;33068;51.990;5.926;2022-07-23T14:45:12;29.80;68.90
47336;DHT22;33068;51.990;5.926;2022-07-23T14:47:39;30.30;69.00
47336;DHT22;33068;51.990;5.926;2022-07-23T14:50:10;30.60;67.00
47336;DHT22;33068;51.990;5.926;2022-07-23T14:52:39;31.00;67.50
47336;DHT22;33068;51.990;5.926;2022-07-23T14:55:09;31.10;66.60
47336;DHT22;33068;51.990;5.926;2022-07-23T14:57:36;31.30;66.20
47336;DHT22;33068;51.990;5.926;2022-07-23T15:00:05;31.70;66.50
47336;DHT22;33068;51.990;5.926;2022-07-23T15:02:33;32.10;67.30
47336;DHT22;33068;51.990;5.926;2022-07-23T15:05:03;31.80;64.60
47336;DHT22;33068;51.990;5.926;2022-07-23T15:07:31;31.50;67.00
47336;DHT22;33068;51.990;5.926;2022-07-23T15:10:03;30.80;66.30
47336;DHT22;33068;51.990;5.926;2022-07-23T15:12:30;30.20;67.90
47336;DHT22;33068;51.990;5.926;2022-07-23T15:14:57;29.70;66.60
47336;DHT22;33068;51.990;5.926;2022-07-23T15:17:27;29.40;69.00
47336;DHT22;33068;51.990;5.926;2022-07-23T15:19:55;29.40;68.60
47336;DHT22;33068;51.990;5.926;2022-07-23T15:22:22;29.40;68.10
47336;DHT22;33068;51.990;5.926;2022-07-23T15:24:49;29.20;68.90
47336;DHT22;33068;51.990;5.926;2022-07-23T15:27:19;28.60;70.00
47336;DHT22;33068;51.990;5.926;2022-07-23T15:29:46;28.10;71.50
47336;DHT22;33068;51.990;5.926;2022-07-23T15:32:16;28.00;71.50
47336;DHT22;33068;51.990;5.926;2022-07-23T15:34:44;28.10;72.90
47336;DHT22;33068;51.990;5.926;2022-07-23T15:37:13;28.20;72.70
47336;DHT22;33068;51.990;5.926;2022-07-23T15:39:44;28.20;72.10
47336;DHT22;33068;51.990;5.926;2022-07-23T15:42:11;28.10;71.90
47336;DHT22;33068;51.990;5.926;2022-07-23T15:44:42;28.10;72.70
47336;DHT22;33068;51.990;5.926;2022-07-23T15:47:12;27.80;71.70
47336;DHT22;33068;51.990;5.926;2022-07-23T15:49:40;28.60;73.00